Time;durP1;ratioP1;P1;durP2;ratioP2;P2;SDS_P1;SDS_P2;PMS_P1;PMS_P2;Temp;Humidity;BMP_temperature;BMP_pressure;BME280_temperature;BME280_humidity;BME280_pressure;Samples;Min_cycle;Max_cycle;Signal;HPM_P1;HPM_P2
2022/08/06 00:02:20;;;;;;;3.83;1.80;;;;;;;;;;5054708;28;20447;-88
2022/08/06 00:04:49;;;;;;;4.70;2.30;;;18.60;99.90;;;;;;5054843;28;20832;-91
2022/08/06 00:07:16;;;;;;;2.20;2.00;;;;;;;;;;5055056;28;20454;-90
2022/08/06 00:09:43;;;;;;;2.87;2.00;;;;;;;;;;5053408;28;20505;-90
2022/08/06 00:12:10;;;;;;;2.13;1.93;;;;;;;;;;5055495;28;20462;-90
2022/08/06 00:14:38;;;;;;;2.30;2.10;;;18.50;99.90;;;;;;5054848;28;20481;-91
2022/08/06 00:17:05;;;;;;;2.60;1.80;;;;;;;;;;5055005;28;20447;-91
2022/08/06 00:19:32;;;;;;;2.10;1.90;;;;;;;;;;5055174;28;20453;-89
2022/08/06 00:22:00;;;;;;;4.60;2.17;;;18.50;99.90;;;;;;5054743;28;20463;-89
2022/08/06 00:24:28;;;;;;;2.10;1.87;;;;;;;;;;5052203;28;20496;-91
2022/08/06 00:26:55;;;;;;;2.50;2.00;;;;;;;;;;5054373;28;20458;-90
2022/08/06 00:29:22;;;;;;;3.37;2.37;;;;;;;;;;5054656;28;20458;-91
2022/08/06 00:31:49;;;;;;;2.50;1.83;;;;;;;;;;5054448;28;20447;-88
2022/08/06 00:34:16;;;;;;;2.27;2.07;;;;;;;;;;5054431;28;20458;-88
2022/08/06 00:36:43;;;;;;;2.70;1.60;;;;;;;;;;5054503;28;20450;-90
2022/08/06 00:39:11;;;;;;;2.00;1.80;;;18.50;99.90;;;;;;5053111;28;20937;-91
2022/08/06 00:41:38;;;;;;;4.47;1.70;;;;;;;;;;5054248;28;20458;-90
2022/08/06 00:44:05;;;;;;;3.20;1.67;;;;;;;;;;5054296;28;20498;-89
2022/08/06 00:46:33;;;;;;;2.73;2.00;;;;;;;;;;5054246;28;20474;-89
2022/08/06 00:49:00;;;;;;;3.33;2.10;;;;;;;;;;5053944;28;20450;-90
2022/08/06 00:51:27;;;;;;;2.80;1.70;;;;;;;;;;5054192;28;20816;-88
2022/08/06 00:53:54;;;;;;;2.43;1.70;;;;;;;;;;5053979;28;20793;-89
2022/08/06 00:56:22;;;;;;;2.80;2.20;;;18.30;99.90;;;;;;5053305;28;20469;-90
2022/08/06 00:58:49;;;;;;;3.13;1.90;;;;;;;;;;5048960;28;20439;-92
2022/08/06 01:01:17;;;;;;;2.17;1.97;;;;;;;;;;5053738;28;20949;-92
2022/08/06 01:03:44;;;;;;;1.77;1.67;;;;;;;;;;5054054;28;20494;-90
2022/08/06 01:06:11;;;;;;;3.93;2.17;;;;;;;;;;5053891;28;20454;-91
2022/08/06 01:08:38;;;;;;;1.60;1.50;;;;;;;;;;5053673;28;21110;-91
2022/08/06 01:11:05;;;;;;;2.30;1.50;;;;;;;;;;5052263;28;20803;-89
2022/08/06 01:13:34;;;;;;;3.17;1.97;;;18.30;99.90;;;;;;5053802;28;20443;-90
2022/08/06 01:16:10;;;;;;;2.10;1.87;;;18.30;99.90;;;;;;5053260;28;20479;-89
2022/08/06 01:18:46;;;;;;;3.23;1.90;;;18.30;99.90;;;;;;5035312;28;20442;-91
2022/08/06 01:21:23;;;;;;;2.20;1.93;;;18.30;99.90;;;;;;5052712;28;20479;-89
2022/08/06 01:24:15;;;;;;;1.70;1.60;;;18.30;99.90;;;;;;5053612;28;20633;-91
2022/08/06 01:26:47;;;;;;;2.97;1.80;;;18.30;99.90;;;;;;5053422;28;20442;-88
2022/08/06 01:29:22;;;;;;;1.40;1.30;;;18.30;99.90;;;;;;5053193;28;20450;-89
2022/08/06 01:31:53;;;;;;;4.40;1.70;;;18.20;99.90;;;;;;5053224;28;20438;-90
2022/08/06 01:34:25;;;;;;;3.00;1.70;;;18.30;99.90;;;;;;5053070;28;20439;-88
2022/08/06 01:36:59;;;;;;;3.57;1.90;;;18.30;99.90;;;;;;5053542;28;20449;-89
2022/08/06 01:39:28;;;;;;;3.67;1.50;;;18.30;99.90;;;;;;5052148;28;20442;-89
2022/08/06 01:41:56;;;;;;;3.23;1.87;;;;;;;;;;5053256;28;20453;-90
2022/08/06 01:44:28;;;;;;;3.20;1.70;;;18.30;99.90;;;;;;5053141;28;20493;-90
2022/08/06 01:47:00;;;;;;;3.37;1.60;;;18.30;99.90;;;;;;5052878;28;20524;-91
2022/08/06 01:49:31;;;;;;;5.40;1.97;;;18.30;99.90;;;;;;5052984;28;20446;-90
2022/08/06 01:52:00;;;;;;;4.07;1.70;;;18.40;99.90;;;;;;5053116;28;20458;-90
2022/08/06 01:54:29;;;;;;;2.10;1.70;;;18.40;99.90;;;;;;5051109;28;20465;-90
2022/08/06 01:56:58;;;;;;;1.90;1.70;;;18.30;99.90;;;;;;5053123;28;20922;-89
2022/08/06 01:59:31;;;;;;;3.73;1.63;;;18.40;99.90;;;;;;5051989;28;20443;-90
2022/08/06 02:02:01;;;;;;;1.67;1.57;;;18.40;99.90;;;;;;5053018;28;20470;-91
2022/08/06 02:04:32;;;;;;;2.37;1.60;;;18.30;99.90;;;;;;5051368;28;21047;-89
2022/08/06 02:07:01;;;;;;;1.77;1.30;;;18.50;99.90;;;;;;5053112;28;20447;-90
2022/08/06 02:09:31;;;;;;;1.83;1.73;;;18.30;99.90;;;;;;5051927;28;20526;-90
2022/08/06 02:12:07;;;;;;;2.27;1.90;;;18.20;99.90;;;;;;5051737;28;20450;-90
2022/08/06 02:14:40;;;;;;;1.50;1.40;;;18.10;99.90;;;;;;5052928;28;20478;-90
2022/08/06 02:17:07;;;;;;;1.70;1.37;;;;;;;;;;5053272;28;20957;-90
2022/08/06 02:19:35;;;;;;;2.40;1.77;;;18.10;99.90;;;;;;5053251;28;20942;-91
2022/08/06 02:22:04;;;;;;;2.60;1.50;;;18.10;99.90;;;;;;5053144;28;20461;-90
2022/08/06 02:24:33;;;;;;;2.30;1.67;;;18.00;99.90;;;;;;5047715;28;20486;-90
2022/08/06 02:27:02;;;;;;;2.47;1.63;;;18.10;99.90;;;;;;5052621;28;21008;-89
2022/08/06 02:29:29;;;;;;;4.30;1.83;;;;;;;;;;5052485;28;20451;-89
2022/08/06 02:31:57;;;;;;;4.13;2.20;;;18.00;99.90;;;;;;5053655;28;20450;-91
2022/08/06 02:34:24;;;;;;;5.03;1.80;;;;;;;;;;5056473;28;20447;-89
2022/08/06 02:36:57;;;;;;;1.63;1.53;;;18.00;99.90;;;;;;5056613;28;20450;-90
2022/08/06 02:39:27;;;;;;;1.80;1.40;;;17.90;99.90;;;;;;5053820;28;20508;-88
2022/08/06 02:42:02;;;;;;;6.83;1.73;;;17.90;99.90;;;;;;5056440;28;20513;-89
2022/08/06 02:44:40;;;;;;;4.50;1.63;;;17.90;99.90;;;;;;5051848;28;20477;-90
2022/08/06 02:47:13;;;;;;;2.43;1.67;;;17.90;99.90;;;;;;5056372;28;20541;-89
2022/08/06 02:49:45;;;;;;;2.00;1.50;;;17.90;99.90;;;;;;5056524;28;20449;-89
2022/08/06 02:52:17;;;;;;;1.70;1.60;;;17.90;99.90;;;;;;5056529;28;20454;-89
2022/08/06 02:54:49;;;;;;;1.83;1.60;;;17.90;99.90;;;;;;5055060;28;20470;-90
2022/08/06 02:57:23;;;;;;;2.03;1.53;;;17.90;99.90;;;;;;5056230;28;20458;-89
2022/08/06 02:59:54;;;;;;;2.00;1.60;;;17.80;99.90;;;;;;5056145;28;20469;-90
2022/08/06 03:02:25;;;;;;;3.17;1.80;;;17.80;99.90;;;;;;5056148;28;20464;-90
2022/08/06 03:04:54;;;;;;;2.53;1.70;;;17.80;99.90;;;;;;5055721;28;20989;-89
2022/08/06 03:07:24;;;;;;;2.70;1.67;;;17.70;99.90;;;;;;5056057;28;20446;-90
2022/08/06 03:09:52;;;;;;;5.90;1.77;;;17.70;99.90;;;;;;5054653;28;20945;-88
2022/08/06 03:12:21;;;;;;;5.13;1.80;;;17.60;99.90;;;;;;5055619;28;20470;-90
2022/08/06 03:14:50;;;;;;;2.27;2.07;;;17.60;99.90;;;;;;5055449;28;20479;-91
2022/08/06 03:17:18;;;;;;;4.07;1.80;;;17.70;99.90;;;;;;5055871;28;20797;-91
2022/08/06 03:19:47;;;;;;;2.03;1.50;;;17.60;99.90;;;;;;5055860;28;20842;-89
2022/08/06 03:22:17;;;;;;;3.23;2.27;;;17.60;99.90;;;;;;5055792;28;20461;-88
2022/08/06 03:24:44;;;;;;;2.27;2.07;;;;;;;;;;5052980;28;20509;-89
2022/08/06 03:27:12;;;;;;;2.07;1.83;;;17.60;99.90;;;;;;5055732;28;20450;-90
2022/08/06 03:29:40;;;;;;;3.20;1.70;;;17.60;99.90;;;;;;5055655;28;20453;-92
2022/08/06 03:32:09;;;;;;;1.97;1.63;;;17.70;99.90;;;;;;5055486;28;20478;-91
2022/08/06 03:34:37;;;;;;;3.90;1.93;;;17.60;99.90;;;;;;5055367;28;20446;-90
2022/08/06 03:37:08;;;;;;;3.80;1.90;;;17.60;99.90;;;;;;5055282;28;20865;-89
2022/08/06 03:39:39;;;;;;;3.90;1.90;;;17.50;99.90;;;;;;5054204;28;20937;-89
2022/08/06 03:42:07;;;;;;;1.80;1.70;;;;;;;;;;5055355;28;20446;-90
2022/08/06 03:44:34;;;;;;;3.70;1.87;;;;;;;;;;5054591;28;20532;-89
2022/08/06 03:47:06;;;;;;;2.40;2.00;;;17.40;99.90;;;;;;5055208;28;20447;-90
2022/08/06 03:49:38;;;;;;;1.97;1.77;;;17.30;99.90;;;;;;5054933;28;20442;-89
2022/08/06 03:52:07;;;;;;;2.43;1.47;;;17.30;99.90;;;;;;5055053;28;20443;-88
2022/08/06 03:54:37;;;;;;;3.10;1.53;;;17.30;99.90;;;;;;5054094;28;20976;-90
2022/08/06 03:57:09;;;;;;;1.53;1.43;;;17.20;99.90;;;;;;5055155;28;20457;-88
2022/08/06 03:59:38;;;;;;;2.53;1.90;;;17.20;99.90;;;;;;5054903;28;20810;-90
2022/08/06 04:02:07;;;;;;;2.77;1.63;;;17.20;99.90;;;;;;5055125;28;20458;-89
2022/08/06 04:04:34;;;;;;;3.00;1.80;;;;;;;;;;5054808;28;20489;-90
2022/08/06 04:07:02;;;;;;;6.90;2.20;;;;;;;;;;5054941;28;20470;-89
2022/08/06 04:09:32;;;;;;;3.27;1.60;;;17.30;99.90;;;;;;5053709;28;20462;-90
2022/08/06 04:11:59;;;;;;;2.20;2.00;;;;;;;;;;5054748;28;20450;-89
2022/08/06 04:14:27;;;;;;;2.00;1.73;;;17.20;99.90;;;;;;5054133;28;20524;-89
2022/08/06 04:16:54;;;;;;;2.40;1.60;;;;;;;;;;5054672;28;20764;-89
2022/08/06 04:19:22;;;;;;;4.60;1.90;;;;;;;;;;5054630;28;20446;-90
2022/08/06 04:21:49;;;;;;;2.40;1.90;;;;;;;;;;5054691;28;20450;-90
2022/08/06 04:24:16;;;;;;;2.23;1.80;;;;;;;;;;5053185;28;20715;-89
2022/08/06 04:26:48;;;;;;;4.90;1.70;;;17.20;99.90;;;;;;5054265;28;20443;-89
2022/08/06 04:29:18;;;;;;;2.10;1.83;;;17.20;99.90;;;;;;5054297;28;20450;-92
2022/08/06 04:31:48;;;;;;;3.63;1.80;;;17.20;99.90;;;;;;5054451;28;20807;-91
2022/08/06 04:34:22;;;;;;;3.37;2.00;;;17.20;99.90;;;;;;5054421;28;20457;-89
2022/08/06 04:36:49;;;;;;;1.70;1.60;;;;;;;;;;5053016;28;20510;-90
2022/08/06 04:39:16;;;;;;;2.60;1.63;;;;;;;;;;5052607;28;20455;-90
2022/08/06 04:41:45;;;;;;;4.73;1.90;;;17.40;99.90;;;;;;5054291;28;20945;-89
2022/08/06 04:44:13;;;;;;;2.20;2.00;;;;;;;;;;5054162;28;20895;-91
2022/08/06 04:46:41;;;;;;;3.73;2.20;;;17.40;99.90;;;;;;5050351;28;20563;-88
2022/08/06 04:49:08;;;;;;;2.30;1.87;;;;;;;;;;5054305;28;20581;-89
2022/08/06 04:51:35;;;;;;;4.90;1.90;;;;;;;;;;5054133;28;20449;-89
2022/08/06 04:54:05;;;;;;;2.20;2.00;;;17.40;99.90;;;;;;5052443;28;20454;-92
2022/08/06 04:56:32;;;;;;;2.70;1.93;;;;;;;;;;5053670;28;20477;-90
2022/08/06 04:59:00;;;;;;;4.10;2.00;;;17.40;99.90;;;;;;5051046;28;20858;-88
2022/08/06 05:01:27;;;;;;;2.17;1.90;;;;;;;;;;5053939;28;20453;-90
2022/08/06 05:03:54;;;;;;;2.60;1.77;;;;;;;;;;5052585;28;20455;-90
2022/08/06 05:06:25;;;;;;;3.40;1.70;;;17.40;99.90;;;;;;5053537;28;20490;-89
2022/08/06 05:08:57;;;;;;;2.10;1.90;;;17.30;99.90;;;;;;5053675;28;20477;-91
2022/08/06 05:11:27;;;;;;;3.70;2.17;;;17.50;99.90;;;;;;5053050;28;20826;-90
2022/08/06 05:13:58;;;;;;;2.40;1.73;;;17.40;99.90;;;;;;5053477;28;20455;-89
2022/08/06 05:16:28;;;;;;;2.30;1.53;;;17.40;99.90;;;;;;5053359;28;20475;-90
2022/08/06 05:19:00;;;;;;;2.00;1.67;;;17.40;99.90;;;;;;5053493;28;20447;-89
2022/08/06 05:21:31;;;;;;;3.57;2.00;;;17.40;99.90;;;;;;5053744;28;20446;-88
2022/08/06 05:23:59;;;;;;;3.20;2.13;;;;;;;;;;5052901;28;20493;-91
2022/08/06 05:26:26;;;;;;;1.80;1.70;;;;;;;;;;5052966;28;20497;-89
2022/08/06 05:28:53;;;;;;;2.43;1.90;;;;;;;;;;5053509;28;20489;-89
2022/08/06 05:31:31;;;;;;;2.40;2.10;;;17.40;99.90;;;;;;5053101;28;20533;-89
2022/08/06 05:33:59;;;;;;;6.03;2.03;;;;;;;;;;5053443;28;20819;-89
2022/08/06 05:36:26;;;;;;;1.97;1.80;;;;;;;;;;5053143;28;20446;-89
2022/08/06 05:38:53;;;;;;;1.90;1.80;;;;;;;;;;5053382;28;20451;-89
2022/08/06 05:41:20;;;;;;;3.03;2.20;;;;;;;;;;5052144;28;20830;-90
2022/08/06 05:43:47;;;;;;;6.30;2.10;;;;;;;;;;5053286;28;20454;-91
2022/08/06 05:46:17;;;;;;;2.80;2.20;;;17.60;99.90;;;;;;5052864;28;20494;-89
2022/08/06 05:48:50;;;;;;;3.53;2.30;;;17.60;99.90;;;;;;5052813;28;20577;-89
2022/08/06 05:51:25;;;;;;;2.53;2.30;;;17.70;99.90;;;;;;5052877;28;20457;-91
2022/08/06 05:53:58;;;;;;;2.70;2.50;;;17.70;99.90;;;;;;5053236;28;20457;-88
2022/08/06 05:56:32;;;;;;;2.80;1.97;;;17.60;99.90;;;;;;5052659;28;20464;-91
2022/08/06 05:59:04;;;;;;;2.20;1.87;;;17.70;99.90;;;;;;5053079;28;20442;-88
2022/08/06 06:01:32;;;;;;;3.57;2.00;;;17.80;99.90;;;;;;5053282;28;20468;-89
2022/08/06 06:04:01;;;;;;;2.30;2.10;;;18.00;99.90;;;;;;5053117;28;20446;-87
2022/08/06 06:06:28;;;;;;;2.70;1.83;;;;;;;;;;5054802;28;20497;-91
2022/08/06 06:08:56;;;;;;;4.20;2.00;;;;;;;;;;5057131;28;20817;-89
2022/08/06 06:11:24;;;;;;;2.37;1.97;;;18.50;99.90;;;;;;5056205;28;20476;-89
2022/08/06 06:13:51;;;;;;;1.90;1.80;;;;;;;;;;5056980;28;20453;-88
2022/08/06 06:16:25;;;;;;;3.07;2.30;;;18.70;99.90;;;;;;5056828;28;20482;-91
2022/08/06 06:19:08;;;;;;;2.53;2.20;;;19.00;99.90;;;;;;5057018;28;20801;-92
2022/08/06 06:21:43;;;;;;;2.40;2.20;;;19.00;99.90;;;;;;5056476;28;20443;-90
2022/08/06 06:24:17;;;;;;;4.40;2.40;;;18.70;99.90;;;;;;5055885;28;20823;-90
2022/08/06 06:26:49;;;;;;;3.60;2.60;;;18.60;99.90;;;;;;5056873;28;20548;-89
2022/08/06 06:29:28;;;;;;;2.30;2.10;;;19.00;99.90;;;;;;5056412;28;20442;-88
2022/08/06 06:32:03;;;;;;;4.60;2.67;;;19.40;99.40;;;;;;5054852;28;20456;-89
2022/08/06 06:34:46;;;;;;;2.30;2.10;;;19.60;99.70;;;;;;5056745;28;20448;-90
2022/08/06 06:37:20;;;;;;;2.10;1.90;;;20.40;97.60;;;;;;5053589;28;20472;-90
2022/08/06 06:39:55;;;;;;;3.53;2.50;;;19.60;96.50;;;;;;5056563;28;20450;-89
2022/08/06 06:42:28;;;;;;;2.20;1.87;;;20.00;98.10;;;;;;5056011;28;20445;-89
2022/08/06 06:45:08;;;;;;;2.63;1.80;;;20.10;96.40;;;;;;5056396;28;20454;-90
2022/08/06 06:47:41;;;;;;;2.83;1.83;;;20.30;95.10;;;;;;5052399;28;20806;-91
2022/08/06 06:50:14;;;;;;;2.30;1.90;;;20.30;94.70;;;;;;5056329;28;20795;-91
2022/08/06 06:52:43;;;;;;;3.13;2.33;;;20.30;96.00;;;;;;5056973;28;20859;-89
2022/08/06 06:55:21;;;;;;;2.87;2.40;;;20.60;95.00;;;;;;5056035;28;20453;-89
2022/08/06 06:57:52;;;;;;;2.87;2.60;;;20.50;92.80;;;;;;5057854;28;20450;-90
2022/08/06 07:00:20;;;;;;;2.50;1.97;;;;;;;;;;5056450;28;20454;-89
2022/08/06 07:02:49;;;;;;;2.73;2.30;;;21.10;91.60;;;;;;5056523;28;20438;-88
2022/08/06 07:05:18;;;;;;;3.90;2.37;;;21.20;93.20;;;;;;5056157;28;20442;-88
2022/08/06 07:07:47;;;;;;;6.90;2.57;;;20.60;93.30;;;;;;5052537;28;20469;-89
2022/08/06 07:10:15;;;;;;;2.80;2.20;;;20.60;92.70;;;;;;5055088;28;20946;-90
2022/08/06 07:12:45;;;;;;;2.80;2.03;;;20.40;94.50;;;;;;5055993;28;20447;-90
2022/08/06 07:15:13;;;;;;;2.63;2.30;;;20.10;93.60;;;;;;5058106;28;20490;-87
2022/08/06 07:17:41;;;;;;;3.90;2.37;;;;;;;;;;5057581;28;20490;-93
2022/08/06 07:20:11;;;;;;;2.00;1.90;;;19.40;99.90;;;;;;5056803;28;20458;-89
2022/08/06 07:22:42;;;;;;;3.80;2.53;;;19.10;99.60;;;;;;5053248;28;20443;-88
2022/08/06 07:25:12;;;;;;;2.47;2.27;;;19.60;99.90;;;;;;5054536;28;20525;-87
2022/08/06 07:27:40;;;;;;;2.70;2.40;;;20.00;96.90;;;;;;5054021;28;20494;-91
2022/08/06 07:30:09;;;;;;;3.90;2.27;;;19.60;97.30;;;;;;5057241;28;20454;-90
2022/08/06 07:32:36;;;;;;;2.47;2.10;;;;;;;;;;5056086;28;20450;-88
2022/08/06 07:35:05;;;;;;;2.43;2.20;;;20.10;96.70;;;;;;5055763;28;20469;-89
2022/08/06 07:37:35;;;;;;;2.43;2.23;;;21.00;95.40;;;;;;5055488;28;20450;-89
2022/08/06 07:40:07;;;;;;;3.60;2.20;;;21.70;92.80;;;;;;5054618;28;20454;-89
2022/08/06 07:42:37;;;;;;;2.40;2.20;;;21.40;90.50;;;;;;5057022;28;20447;-92
2022/08/06 07:45:07;;;;;;;5.20;2.83;;;21.30;90.20;;;;;;5057077;28;20482;-90
2022/08/06 07:47:37;;;;;;;7.13;3.10;;;21.10;90.80;;;;;;5055591;28;20502;-88
2022/08/06 07:50:04;;;;;;;2.80;2.50;;;;;;;;;;5055546;28;21007;-88
2022/08/06 07:52:32;;;;;;;5.10;2.60;;;20.70;92.40;;;;;;5055376;28;20454;-90
2022/08/06 07:55:00;;;;;;;1.90;1.80;;;20.90;92.80;;;;;;5055463;28;20451;-92
2022/08/06 07:57:29;;;;;;;5.33;3.00;;;21.20;90.70;;;;;;5055038;28;20450;-90
2022/08/06 07:59:56;;;;;;;5.10;2.67;;;;;;;;;;5056101;28;20447;-89
2022/08/06 08:02:25;;;;;;;2.87;2.30;;;21.80;91.10;;;;;;5055210;28;20805;-89
2022/08/06 08:07:37;;;;;;;2.43;2.23;;;22.10;85.60;;;;;;5060679;28;20485;-90
2022/08/06 08:10:05;;;;;;;2.97;2.67;;;;;;;;;;5056701;28;20453;-88
2022/08/06 08:12:37;;;;;;;2.90;2.13;;;21.90;84.40;;;;;;5062914;28;20454;-89
2022/08/06 08:15:04;;;;;;;4.03;2.40;;;;;;;;;;5066078;28;20477;-93
2022/08/06 08:17:31;;;;;;;2.43;2.23;;;;;;;;;;5040028;28;20458;-92
2022/08/06 08:20:05;;;;;;;2.80;2.53;;;22.90;85.20;;;;;;5034307;28;20530;-91
2022/08/06 08:22:33;;;;;;;2.60;2.30;;;;;;;;;;5034273;28;20478;-92
2022/08/06 08:25:00;;;;;;;2.50;2.27;;;;;;;;;;5036062;28;20933;-93
2022/08/06 08:27:27;;;;;;;2.70;2.50;;;;;;;;;;5047570;22;20495;-91
2022/08/06 08:29:55;;;;;;;2.60;2.40;;;22.20;82.10;;;;;;5042923;28;20454;-91
2022/08/06 08:32:23;;;;;;;3.80;2.33;;;;;;;;;;5041865;28;20454;-95
2022/08/06 08:34:50;;;;;;;5.17;2.73;;;;;;;;;;5040097;28;20455;-93
2022/08/06 08:37:17;;;;;;;2.60;2.40;;;;;;;;;;5040424;28;20459;-92
2022/08/06 08:39:45;;;;;;;2.60;2.23;;;;;;;;;;5033986;28;20459;-93
2022/08/06 08:42:19;;;;;;;4.70;2.00;;;23.00;75.00;;;;;;5036700;28;21070;-90
2022/08/06 08:44:47;;;;;;;5.83;2.40;;;23.60;75.00;;;;;;5016071;28;20451;-91
2022/08/06 08:47:18;;;;;;;4.00;2.00;;;23.60;72.20;;;;;;5016099;28;20496;-90
2022/08/06 08:49:51;;;;;;;2.57;1.90;;;23.60;74.10;;;;;;5018554;28;20475;-93
2022/08/06 08:52:24;;;;;;;2.43;1.90;;;23.30;74.80;;;;;;5016276;28;20453;-93
2022/08/06 08:54:52;;;;;;;2.67;1.77;;;24.20;70.90;;;;;;5014010;28;20463;-92
2022/08/06 08:57:20;;;;;;;2.20;2.00;;;;;;;;;;5016964;28;20483;-88
2022/08/06 08:59:47;;;;;;;2.83;2.60;;;;;;;;;;5015316;28;20479;-90
2022/08/06 09:02:16;;;;;;;3.93;2.57;;;22.00;76.50;;;;;;5014838;28;20452;-92
2022/08/06 09:04:43;;;;;;;2.30;2.10;;;;;;;;;;5017097;28;20978;-93
2022/08/06 09:07:10;;;;;;;3.67;2.47;;;;;;;;;;5016377;28;20500;-90
2022/08/06 09:09:38;;;;;;;3.83;2.43;;;20.60;83.40;;;;;;5014055;28;20453;-92
2022/08/06 09:12:07;;;;;;;3.67;2.30;;;;;;;;;;5015650;28;20791;-93
2022/08/06 09:14:34;;;;;;;2.40;2.20;;;;;;;;;;5025999;28;20456;-93
2022/08/06 09:17:02;;;;;;;6.53;2.90;;;20.40;85.10;;;;;;5020268;28;20448;-93
2022/08/06 09:19:32;;;;;;;5.30;2.30;;;20.40;90.20;;;;;;5028051;28;20434;-93
2022/08/06 09:21:59;;;;;;;3.10;1.93;;;;;;;;;;5027864;28;20451;-93
2022/08/06 09:24:26;;;;;;;2.93;2.50;;;;;;;;;;5027069;28;20463;-91
2022/08/06 09:27:06;;;;;;;2.37;2.17;;;20.70;86.60;;;;;;5041279;23;20493;-91
2022/08/06 09:29:33;;;;;;;2.57;2.07;;;;;;;;;;5062293;28;20468;-86
2022/08/06 09:32:03;;;;;;;2.50;2.30;;;20.70;84.90;;;;;;5056202;28;20815;-94
2022/08/06 09:34:36;;;;;;;4.73;2.27;;;20.80;86.30;;;;;;5061779;28;20451;-93
2022/08/06 09:37:04;;;;;;;5.97;2.50;;;;;;;;;;5066174;28;20439;-89
2022/08/06 09:39:34;;;;;;;2.50;1.93;;;21.10;84.50;;;;;;5078954;22;20476;-90
2022/08/06 09:42:02;;;;;;;3.70;2.20;;;;;;;;;;5067945;28;20520;-91
2022/08/06 09:44:29;;;;;;;4.30;2.47;;;;;;;;;;5063177;28;20513;-93
2022/08/06 09:46:57;;;;;;;5.47;2.70;;;;;;;;;;5057143;28;20478;-92
2022/08/06 09:49:25;;;;;;;5.83;2.50;;;;;;;;;;5057857;28;20996;-88
2022/08/06 09:52:12;;;;;;;3.50;2.77;;;20.70;87.70;;;;;;5061841;28;20470;-90
2022/08/06 09:54:39;;;;;;;3.17;2.43;;;21.10;85.10;;;;;;5060916;28;20442;-94
2022/08/06 09:57:07;;;;;;;4.20;2.67;;;;;;;;;;5065850;28;20443;-93
2022/08/06 09:59:44;;;;;;;2.80;2.60;;;21.30;84.40;;;;;;5055700;28;20454;-93
2022/08/06 10:02:14;;;;;;;3.10;2.37;;;21.40;84.50;;;;;;5062614;28;20447;-94
2022/08/06 10:04:41;;;;;;;2.53;2.33;;;;;;;;;;5060794;28;20472;-89
2022/08/06 10:07:09;;;;;;;3.80;2.30;;;21.10;82.90;;;;;;5060735;28;20506;-92
2022/08/06 10:09:37;;;;;;;3.90;2.60;;;;;;;;;;5059537;28;20450;-93
2022/08/06 10:12:20;;;;;;;3.20;2.17;;;21.50;84.50;;;;;;5073342;22;20582;-91
2022/08/06 10:14:47;;;;;;;2.93;2.30;;;;;;;;;;5061700;28;20454;-94
2022/08/06 10:17:17;;;;;;;2.70;2.47;;;20.90;84.30;;;;;;5056076;28;20446;-93
2022/08/06 10:19:45;;;;;;;3.47;2.50;;;21.20;83.60;;;;;;5063230;28;20449;-88
2022/08/06 10:22:15;;;;;;;3.50;3.20;;;21.10;82.70;;;;;;5055347;28;20492;-90
2022/08/06 10:24:45;;;;;;;3.00;2.70;;;21.50;84.00;;;;;;5055501;28;20445;-93
2022/08/06 10:27:13;;;;;;;2.63;2.40;;;21.90;84.00;;;;;;5057516;28;20490;-91
2022/08/06 10:29:45;;;;;;;3.40;2.13;;;21.90;80.70;;;;;;5053465;28;20446;-92
2022/08/06 10:32:24;;;;;;;5.37;3.03;;;22.20;80.60;;;;;;5061766;28;20446;-92
2022/08/06 10:34:54;;;;;;;2.63;2.20;;;22.70;78.80;;;;;;5061040;28;20457;-94
2022/08/06 10:37:23;;;;;;;3.30;2.20;;;22.70;76.90;;;;;;5058867;28;20454;-93
2022/08/06 10:39:56;;;;;;;2.50;2.30;;;22.80;75.20;;;;;;5066250;22;20443;-92
2022/08/06 10:42:25;;;;;;;5.47;2.40;;;22.20;75.80;;;;;;5057415;28;20524;-89
2022/08/06 10:44:53;;;;;;;2.43;2.23;;;;;;;;;;5061024;28;20953;-89
2022/08/06 10:47:21;;;;;;;2.30;2.10;;;;;;;;;;5064454;28;21005;-89
2022/08/06 10:49:50;;;;;;;4.63;2.20;;;;;;;;;;5060423;28;20479;-90
2022/08/06 10:52:17;;;;;;;2.57;2.30;;;;;;;;;;5058931;28;20469;-90
2022/08/06 10:54:46;;;;;;;2.50;2.30;;;22.70;74.60;;;;;;5061278;28;20434;-91
2022/08/06 10:57:14;;;;;;;2.23;2.07;;;;;;;;;;5068115;28;20435;-88
2022/08/06 10:59:41;;;;;;;3.23;2.50;;;22.80;70.20;;;;;;5063530;28;20442;-88
2022/08/06 11:02:16;;;;;;;2.50;2.30;;;22.70;73.40;;;;;;5056611;28;20454;-91
2022/08/06 11:04:49;;;;;;;4.50;2.43;;;22.90;76.20;;;;;;5059474;28;20445;-92
2022/08/06 11:07:50;;;;;;;5.40;2.30;;;23.40;71.10;;;;;;5057058;28;20493;-88
2022/08/06 11:10:25;;;;;;;3.73;2.20;;;;;;;;;;5056124;28;20454;-93
2022/08/06 11:12:54;;;;;;;5.00;4.40;;;25.30;87.10;;;;;;5060388;28;20445;-94
2022/08/06 11:15:22;;;;;;;3.50;2.60;;;;;;;;;;5056489;28;20442;-91
2022/08/06 11:17:51;;;;;;;5.20;3.00;;;24.70;71.50;;;;;;5055882;28;20442;-88
2022/08/06 11:20:39;;;;;;;2.50;2.17;;;24.90;66.80;;;;;;5055537;28;20445;-91
2022/08/06 11:23:24;;;;;;;2.57;2.40;;;23.70;78.10;;;;;;5058281;28;20839;-92
2022/08/06 11:25:54;;;;;;;4.87;2.10;;;23.90;76.70;;;;;;5062429;28;20473;-92
2022/08/06 11:28:41;;;;;;;6.63;2.67;;;23.80;70.20;;;;;;5058113;28;20497;-87
2022/08/06 11:31:28;;;;;;;3.27;2.53;;;24.90;68.60;;;;;;5058314;28;20466;-91
2022/08/06 11:34:00;;;;;;;158.63;83.17;;;25.50;79.00;;;;;;5059867;28;20447;-89
2022/08/06 11:36:28;;;;;;;5.13;2.90;;;24.70;79.00;;;;;;5060210;28;20454;-90
2022/08/06 11:39:00;;;;;;;2.90;2.70;;;24.50;66.80;;;;;;5056531;28;20818;-92
2022/08/06 11:41:30;;;;;;;4.90;2.63;;;24.70;74.10;;;;;;5056056;28;20482;-90
2022/08/06 11:44:07;;;;;;;8.07;2.20;;;24.70;75.50;;;;;;5057159;28;20458;-92
2022/08/06 11:46:37;;;;;;;2.60;2.40;;;23.90;66.90;;;;;;5064221;28;20442;-93
2022/08/06 11:49:22;;;;;;;3.07;2.10;;;23.60;68.80;;;;;;5064261;28;20481;-89
2022/08/06 11:51:51;;;;;;;3.87;2.00;;;23.30;79.40;;;;;;5061891;28;20450;-93
2022/08/06 11:54:20;;;;;;;2.40;2.20;;;24.70;81.80;;;;;;5064606;28;20493;-93
2022/08/06 11:57:30;;;;;;;2.47;1.87;;;25.30;70.20;;;;;;5064834;28;20459;-92
2022/08/06 12:00:09;;;;;;;2.13;1.90;;;25.20;77.00;;;;;;5049797;28;20450;-92
2022/08/06 12:03:05;;;;;;;3.13;2.00;;;25.60;82.60;;;;;;5065873;28;20459;-90
2022/08/06 12:05:36;;;;;;;4.60;4.20;;;25.70;74.30;;;;;;5064322;28;20457;-89
2022/08/06 12:08:39;;;;;;;2.43;1.90;;;25.00;60.00;;;;;;5061890;28;20494;-87
2022/08/06 12:11:28;;;;;;;2.60;2.40;;;25.20;59.90;;;;;;5044317;28;20976;-89
2022/08/06 12:13:55;;;;;;;2.80;2.37;;;;;;;;;;5069515;28;20514;-89
2022/08/06 12:16:39;;;;;;;2.23;2.13;;;26.20;73.00;;;;;;5080075;28;20525;-90
2022/08/06 12:19:12;;;;;;;3.40;2.80;;;25.50;64.80;;;;;;5062211;28;20450;-93
2022/08/06 12:21:40;;;;;;;2.50;2.30;;;;;;;;;;5059201;28;20818;-89
2022/08/06 12:24:08;;;;;;;2.70;2.23;;;;;;;;;;5063157;28;20447;-89
2022/08/06 12:26:35;;;;;;;3.77;2.40;;;;;;;;;;5056291;28;20532;-91
2022/08/06 12:29:06;;;;;;;2.53;2.33;;;24.90;60.60;;;;;;5055797;28;20491;-88
2022/08/06 12:31:47;;;;;;;2.50;2.30;;;;;;;;;;5055499;28;20450;-90
2022/08/06 12:34:25;;;;;;;2.40;2.20;;;25.20;67.70;;;;;;5056107;28;20578;-90
2022/08/06 12:36:52;;;;;;;2.43;2.00;;;;;;;;;;5058814;28;20446;-88
2022/08/06 12:39:19;;;;;;;4.20;2.30;;;;;;;;;;5055039;28;20450;-88
2022/08/06 12:41:46;;;;;;;4.37;3.53;;;;;;;;;;5055255;28;20474;-88
2022/08/06 12:44:15;;;;;;;5.07;2.60;;;24.20;71.50;;;;;;5056134;28;20438;-92
2022/08/06 12:46:44;;;;;;;2.90;2.00;;;;;;;;;;5055188;28;20450;-88
2022/08/06 12:49:11;;;;;;;7.10;2.90;;;;;;;;;;5054994;28;20857;-93
2022/08/06 12:51:38;;;;;;;2.40;2.20;;;;;;;;;;5055616;28;20790;-88
2022/08/06 12:54:07;;;;;;;2.13;2.03;;;24.70;67.60;;;;;;5056498;28;20435;-89
2022/08/06 12:56:39;;;;;;;3.90;3.07;;;24.50;67.00;;;;;;5054860;28;20500;-88
2022/08/06 12:59:08;;;;;;;3.67;3.23;;;24.90;67.90;;;;;;5054382;28;20443;-91
2022/08/06 13:01:37;;;;;;;2.90;2.10;;;25.50;70.10;;;;;;5055020;28;20450;-89
2022/08/06 13:04:09;;;;;;;2.93;2.60;;;26.40;70.20;;;;;;5055256;28;20439;-91
2022/08/06 13:06:38;;;;;;;3.90;2.77;;;25.80;65.50;;;;;;5054036;28;20892;-89
2022/08/06 13:09:05;;;;;;;2.20;1.97;;;;;;;;;;5053590;28;20494;-87
2022/08/06 13:11:36;;;;;;;2.43;2.23;;;25.40;58.80;;;;;;5058824;28;20481;-92
2022/08/06 13:14:11;;;;;;;3.00;2.27;;;24.90;61.10;;;;;;5055276;28;20802;-90
2022/08/06 13:16:40;;;;;;;2.50;2.13;;;25.00;65.80;;;;;;5054271;28;20973;-88
2022/08/06 13:19:10;;;;;;;4.63;2.10;;;25.10;69.10;;;;;;5060779;28;20508;-88
2022/08/06 13:21:39;;;;;;;2.87;2.40;;;;;;;;;;5057725;28;20458;-88
2022/08/06 13:24:07;;;;;;;2.63;2.30;;;25.50;66.20;;;;;;5057329;28;20449;-87
2022/08/06 13:26:46;;;;;;;2.77;2.40;;;25.00;65.50;;;;;;5054559;28;20481;-87
2022/08/06 13:29:15;;;;;;;2.80;2.57;;;25.10;63.90;;;;;;5054287;28;20496;-88
2022/08/06 13:31:43;;;;;;;2.40;2.20;;;25.70;73.20;;;;;;5053913;28;20866;-88
2022/08/06 13:34:12;;;;;;;17.47;16.40;;;25.90;70.50;;;;;;5055212;28;20482;-91
2022/08/06 13:36:58;;;;;;;2.70;2.20;;;25.90;61.70;;;;;;5061485;28;20458;-88
2022/08/06 13:39:28;;;;;;;3.07;2.77;;;26.20;64.40;;;;;;5060084;28;20746;-91
2022/08/06 13:42:02;;;;;;;68.90;62.40;;;;;;;;;;5056008;28;20490;-91
2022/08/06 13:44:31;;;;;;;3.63;2.27;;;25.90;70.30;;;;;;5057338;28;20449;-91